createdAt,value
2023-01-26T00:02:25.709Z,58.77
2023-01-26T00:04:53.909Z,64.60
2023-01-26T00:07:22.010Z,51.93
2023-01-26T00:09:50.108Z,49.73
2023-01-26T00:12:18.238Z,57.47
2023-01-26T00:14:53.515Z,55.23
2023-01-26T00:17:28.171Z,54.53
2023-01-26T00:19:57.863Z,59.07
2023-01-26T00:22:27.685Z,57.77
2023-01-26T00:24:55.801Z,59.30
2023-01-26T00:27:23.953Z,56.73
2023-01-26T00:29:53.494Z,51.33
2023-01-26T00:32:21.596Z,56.23
2023-01-26T00:34:49.683Z,59.57
2023-01-26T00:37:17.856Z,56.77
2023-01-26T00:39:46.010Z,59.73
2023-01-26T00:42:15.904Z,55.27
2023-01-26T00:44:44.936Z,60.23
2023-01-26T00:47:15.408Z,58.63
2023-01-26T00:49:43.619Z,51.87
2023-01-26T00:52:12.393Z,52.23
2023-01-26T00:54:40.581Z,57.53
2023-01-26T00:57:08.839Z,56.87
2023-01-26T00:59:37.073Z,55.90
2023-01-26T01:02:05.250Z,55.07
2023-01-26T01:04:34.787Z,58.87
2023-01-26T01:07:02.953Z,59.73
2023-01-26T01:09:31.056Z,63.93
2023-01-26T01:11:59.153Z,63.97
2023-01-26T01:14:27.273Z,54.33
2023-01-26T01:16:55.440Z,61.13
2023-01-26T01:19:23.614Z,62.40
2023-01-26T01:21:53.086Z,60.93
2023-01-26T01:24:21.228Z,63.73
2023-01-26T01:26:49.353Z,59.10
2023-01-26T01:29:18.566Z,63.13
2023-01-26T01:31:46.712Z,71.87
2023-01-26T01:34:14.833Z,63.93
2023-01-26T01:36:42.948Z,66.10
2023-01-26T01:39:12.588Z,63.67
2023-01-26T01:41:40.707Z,65.93
2023-01-26T01:44:17.716Z,66.43
2023-01-26T01:46:53.062Z,69.80
2023-01-26T01:49:26.798Z,71.27
2023-01-26T01:52:01.459Z,67.70
2023-01-26T01:54:38.255Z,64.73
2023-01-26T01:57:15.584Z,68.43
2023-01-26T01:59:45.902Z,71.77
2023-01-26T02:02:14.920Z,71.97
2023-01-26T02:04:43.543Z,68.97
2023-01-26T02:07:13.051Z,66.43
2023-01-26T02:10:01.023Z,70.10
2023-01-26T02:12:32.016Z,75.00
2023-01-26T02:15:01.115Z,69.00
2023-01-26T02:17:29.230Z,72.03
2023-01-26T02:20:04.527Z,78.13
2023-01-26T02:22:43.368Z,72.40
2023-01-26T02:25:21.211Z,72.87
2023-01-26T02:27:51.127Z,76.20
2023-01-26T02:30:19.722Z,69.57
2023-01-26T02:32:48.390Z,69.23
2023-01-26T02:35:16.676Z,71.80
2023-01-26T02:37:44.784Z,70.33
2023-01-26T02:40:22.283Z,71.07
2023-01-26T02:42:54.255Z,69.30
2023-01-26T02:45:23.417Z,66.90
2023-01-26T02:47:51.677Z,68.93
2023-01-26T02:50:18.868Z,71.40
2023-01-26T02:52:46.942Z,75.23
2023-01-26T02:55:22.929Z,69.70
2023-01-26T02:57:53.835Z,71.20
2023-01-26T03:00:24.050Z,69.30
2023-01-26T03:02:53.848Z,69.87
2023-01-26T03:05:22.031Z,71.23
2023-01-26T03:07:50.420Z,71.00
2023-01-26T03:10:19.139Z,71.43
2023-01-26T03:12:47.536Z,71.00
2023-01-26T03:15:34.794Z,69.13
2023-01-26T03:18:36.687Z,70.57
2023-01-26T03:21:25.039Z,69.03
2023-01-26T03:24:10.564Z,72.83
2023-01-26T03:26:56.005Z,72.33
2023-01-26T03:29:24.259Z,73.20
2023-01-26T03:31:53.883Z,70.43
2023-01-26T03:34:22.087Z,69.27
2023-01-26T03:36:50.537Z,73.03
2023-01-26T03:39:32.569Z,71.10
2023-01-26T03:42:18.279Z,72.60
2023-01-26T03:45:04.610Z,67.37
2023-01-26T03:47:52.309Z,73.43
2023-01-26T03:50:38.028Z,86.27
2023-01-26T03:53:32.013Z,71.13
2023-01-26T03:56:21.748Z,68.37
2023-01-26T03:58:51.885Z,79.73
2023-01-26T04:01:26.360Z,76.53
2023-01-26T04:04:15.097Z,74.40
2023-01-26T04:07:02.606Z,68.60
2023-01-26T04:09:31.274Z,71.67
2023-01-26T04:11:59.931Z,69.60
2023-01-26T04:14:49.767Z,74.83
2023-01-26T04:17:36.791Z,70.77
2023-01-26T04:20:25.187Z,69.93
2023-01-26T04:22:53.355Z,74.50
2023-01-26T04:25:23.109Z,69.40
2023-01-26T04:27:51.325Z,71.77
2023-01-26T04:30:19.716Z,78.20
2023-01-26T04:32:47.930Z,73.53
2023-01-26T04:35:17.638Z,67.63
2023-01-26T04:37:45.950Z,70.30
2023-01-26T04:40:14.844Z,74.30
2023-01-26T04:42:43.139Z,75.63
2023-01-26T04:45:12.075Z,79.23
2023-01-26T04:47:40.247Z,76.40
2023-01-26T04:50:10.094Z,67.87
2023-01-26T04:52:39.944Z,75.63
2023-01-26T04:55:08.656Z,75.27
2023-01-26T04:57:37.267Z,75.53
2023-01-26T05:00:06.356Z,78.20
2023-01-26T05:02:34.780Z,71.63
2023-01-26T05:05:03.134Z,79.83
2023-01-26T05:07:31.411Z,73.97
2023-01-26T05:10:01.319Z,72.57
2023-01-26T05:12:35.691Z,80.10
2023-01-26T05:15:04.094Z,74.17
2023-01-26T05:17:32.367Z,82.37
2023-01-26T05:20:00.767Z,78.03
2023-01-26T05:22:31.176Z,81.40
2023-01-26T05:25:00.819Z,82.23
2023-01-26T05:27:29.168Z,77.47
2023-01-26T05:30:00.557Z,73.67
2023-01-26T05:32:36.598Z,79.37
2023-01-26T05:35:05.832Z,85.63
2023-01-26T05:37:36.788Z,90.93
2023-01-26T05:40:13.659Z,83.47
2023-01-26T05:42:45.257Z,81.17
2023-01-26T05:45:13.593Z,86.97
2023-01-26T05:47:43.106Z,85.00
2023-01-26T05:50:13.328Z,84.33
2023-01-26T05:52:48.768Z,80.53
2023-01-26T05:55:18.658Z,74.97
2023-01-26T05:57:47.088Z,82.53
2023-01-26T06:00:17.873Z,80.03
2023-01-26T06:02:48.451Z,86.23
2023-01-26T06:05:19.979Z,77.80
2023-01-26T06:07:48.148Z,83.30
2023-01-26T06:10:22.584Z,79.13
2023-01-26T06:12:50.740Z,84.27
2023-01-26T06:15:20.537Z,85.83
2023-01-26T06:17:48.784Z,75.07
2023-01-26T06:20:28.126Z,85.43
2023-01-26T06:23:03.090Z,77.60
2023-01-26T06:25:32.656Z,82.37
2023-01-26T06:28:00.817Z,85.53
2023-01-26T06:30:34.297Z,79.13
2023-01-26T06:33:02.516Z,84.13
2023-01-26T06:35:33.220Z,73.67
2023-01-26T06:38:03.364Z,77.13
2023-01-26T06:40:32.891Z,78.70
2023-01-26T06:43:01.009Z,78.67
2023-01-26T06:45:29.180Z,78.83
2023-01-26T06:47:57.335Z,84.00
2023-01-26T06:50:32.602Z,77.10
2023-01-26T06:53:14.830Z,77.93
2023-01-26T06:55:44.646Z,82.67
2023-01-26T06:58:12.772Z,79.67
2023-01-26T07:00:41.079Z,76.70
2023-01-26T07:03:11.313Z,79.33
2023-01-26T07:05:39.663Z,78.17
2023-01-26T07:08:08.742Z,80.93
2023-01-26T07:10:36.979Z,83.33
2023-01-26T07:13:07.930Z,75.17
2023-01-26T07:15:36.323Z,80.50
2023-01-26T07:18:04.592Z,79.53
2023-01-26T07:20:32.844Z,89.63
2023-01-26T07:23:01.633Z,80.27
2023-01-26T07:25:30.255Z,81.77
2023-01-26T07:27:58.723Z,79.77
2023-01-26T07:30:29.591Z,76.40
2023-01-26T07:33:00.822Z,80.53
2023-01-26T07:35:30.040Z,88.27
2023-01-26T07:37:59.062Z,79.03
2023-01-26T07:40:27.260Z,74.33
2023-01-26T07:43:01.676Z,81.97
2023-01-26T07:45:32.201Z,77.70
2023-01-26T07:48:03.293Z,74.67
2023-01-26T07:50:32.361Z,82.23
2023-01-26T07:53:06.846Z,79.10
2023-01-26T07:55:35.100Z,75.10
2023-01-26T07:58:06.149Z,78.43
2023-01-26T08:00:35.987Z,88.90
2023-01-26T08:03:04.267Z,75.83
2023-01-26T08:05:33.428Z,77.60
2023-01-26T08:08:02.437Z,72.73
2023-01-26T08:10:35.639Z,74.87
2023-01-26T08:13:34.420Z,75.97
2023-01-26T08:16:09.407Z,85.50
2023-01-26T08:18:37.745Z,74.40
2023-01-26T08:21:06.685Z,81.40
2023-01-26T08:23:37.682Z,70.97
2023-01-26T08:26:09.956Z,81.30
2023-01-26T08:28:41.909Z,79.30
2023-01-26T08:31:22.026Z,78.03
2023-01-26T08:33:51.946Z,76.77
2023-01-26T08:36:22.547Z,75.83
2023-01-26T08:38:51.994Z,78.40
2023-01-26T08:41:20.640Z,90.50
2023-01-26T08:43:48.844Z,83.57
2023-01-26T08:46:18.556Z,88.10
2023-01-26T08:48:49.130Z,75.97
2023-01-26T08:51:17.450Z,81.97
2023-01-26T08:53:45.865Z,81.73
2023-01-26T08:56:14.887Z,79.57
2023-01-26T08:58:45.556Z,87.97
2023-01-26T09:01:15.862Z,76.83
2023-01-26T09:03:45.778Z,90.10
2023-01-26T09:06:15.870Z,90.13
2023-01-26T09:08:44.097Z,90.27
2023-01-26T09:11:12.559Z,90.27
2023-01-26T09:13:48.643Z,78.53
2023-01-26T09:16:22.372Z,81.20
2023-01-26T09:18:52.843Z,84.97
2023-01-26T09:21:21.536Z,81.67
2023-01-26T09:23:49.700Z,82.07
2023-01-26T09:26:17.859Z,87.27
2023-01-26T09:28:48.754Z,78.43
2023-01-26T09:31:17.063Z,84.10
2023-01-26T09:33:50.294Z,79.73
2023-01-26T09:36:20.140Z,80.40
2023-01-26T09:38:51.670Z,77.60
2023-01-26T09:41:33.570Z,79.77
2023-01-26T09:44:06.786Z,75.47
2023-01-26T09:46:47.333Z,80.87
2023-01-26T09:49:20.512Z,81.10
2023-01-26T09:52:00.390Z,74.23
2023-01-26T09:54:35.155Z,70.53
2023-01-26T09:57:11.710Z,72.73
2023-01-26T09:59:45.555Z,73.57
2023-01-26T10:02:26.862Z,79.63
2023-01-26T10:04:59.679Z,72.57
2023-01-26T10:07:30.146Z,73.13
2023-01-26T10:09:58.507Z,79.57
2023-01-26T10:12:32.032Z,71.90
2023-01-26T10:15:04.273Z,86.07
2023-01-26T10:17:35.164Z,84.77
2023-01-26T10:20:07.425Z,75.17
2023-01-26T10:22:48.417Z,67.30
2023-01-26T10:25:20.061Z,64.00
2023-01-26T10:27:48.218Z,69.90
2023-01-26T10:30:17.795Z,64.13
2023-01-26T10:32:48.735Z,61.97
2023-01-26T10:35:21.098Z,66.93
2023-01-26T10:37:52.789Z,60.80
2023-01-26T10:40:21.690Z,52.33
2023-01-26T10:43:00.381Z,61.77
2023-01-26T10:45:30.869Z,55.10
2023-01-26T10:48:19.263Z,56.60
2023-01-26T10:50:52.988Z,55.77
2023-01-26T10:53:28.392Z,53.37
2023-01-26T10:56:04.677Z,47.87
2023-01-26T10:58:46.465Z,50.33
2023-01-26T11:01:18.930Z,62.00
2023-01-26T11:04:03.402Z,51.10
2023-01-26T11:06:32.172Z,56.73
2023-01-26T11:09:20.927Z,54.13
2023-01-26T11:12:01.744Z,48.97
2023-01-26T11:14:31.551Z,51.17
2023-01-26T11:17:10.955Z,49.57
2023-01-26T11:19:56.691Z,45.07
2023-01-26T11:22:32.992Z,42.00
2023-01-26T11:25:14.924Z,44.27
2023-01-26T11:27:52.662Z,48.90
2023-01-26T11:30:42.548Z,43.77
2023-01-26T11:33:24.587Z,41.33
2023-01-26T11:35:58.501Z,46.90
2023-01-26T11:38:35.882Z,45.53
2023-01-26T11:41:18.311Z,40.00
2023-01-26T11:44:18.889Z,44.57
2023-01-26T11:47:16.006Z,38.57
2023-01-26T11:50:05.865Z,46.93
2023-01-26T11:52:44.960Z,40.17
2023-01-26T11:55:21.998Z,39.17
2023-01-26T11:58:14.520Z,42.37
2023-01-26T12:00:46.919Z,43.90
2023-01-26T12:03:22.502Z,44.20
2023-01-26T12:05:55.253Z,40.77
2023-01-26T12:08:27.446Z,47.05
2023-01-26T12:11:22.587Z,41.47
2023-01-26T12:14:09.014Z,39.40
2023-01-26T12:16:44.868Z,37.40
2023-01-26T12:19:27.469Z,39.60
2023-01-26T12:21:58.624Z,43.53
2023-01-26T12:25:04.922Z,47.73
2023-01-26T12:27:29.499Z,46.67
2023-01-26T12:30:06.822Z,36.70
2023-01-26T12:32:35.180Z,43.10
2023-01-26T12:35:03.595Z,42.80
2023-01-26T12:37:48.330Z,44.83
2023-01-26T12:40:26.680Z,40.03
2023-01-26T12:43:05.109Z,40.50
2023-01-26T12:45:39.619Z,36.97
2023-01-26T12:48:14.549Z,44.60
2023-01-26T12:50:47.894Z,42.00
2023-01-26T12:53:19.619Z,40.73
2023-01-26T12:55:51.637Z,44.43
2023-01-26T12:58:23.994Z,45.57
2023-01-26T13:00:58.971Z,49.47
2023-01-26T13:03:31.365Z,45.93
2023-01-26T13:06:01.969Z,39.10
2023-01-26T13:08:53.826Z,47.47
2023-01-26T13:11:45.155Z,41.37
2023-01-26T13:14:32.755Z,42.97
2023-01-26T13:17:52.040Z,46.67
2023-01-26T13:20:43.792Z,45.07
2023-01-26T13:23:41.294Z,38.23
2023-01-26T13:26:26.509Z,40.63
2023-01-26T13:29:32.724Z,40.87
2023-01-26T13:32:03.477Z,35.73
2023-01-26T13:34:39.992Z,41.33
2023-01-26T13:37:15.771Z,44.67
2023-01-26T13:39:49.557Z,37.87
2023-01-26T13:42:27.578Z,41.23
2023-01-26T13:45:01.776Z,37.00
2023-01-26T13:47:35.388Z,35.30
2023-01-26T13:50:23.642Z,34.67
2023-01-26T13:52:52.016Z,38.03
2023-01-26T13:55:26.709Z,34.47
2023-01-26T13:58:13.119Z,34.50
2023-01-26T14:00:41.706Z,38.40
2023-01-26T14:03:22.769Z,36.63
2023-01-26T14:05:58.836Z,40.27
2023-01-26T14:08:27.489Z,38.13
2023-01-26T14:10:56.443Z,37.20
2023-01-26T14:13:29.515Z,39.13
2023-01-26T14:16:00.458Z,36.63
2023-01-26T14:18:29.028Z,37.83
2023-01-26T14:21:04.093Z,38.17
2023-01-26T14:23:36.522Z,41.33
2023-01-26T14:26:06.772Z,39.13
2023-01-26T14:28:38.013Z,41.87
2023-01-26T14:31:11.892Z,37.57
2023-01-26T14:33:40.195Z,35.67
2023-01-26T14:36:17.535Z,34.00
2023-01-26T14:38:47.752Z,36.07
2023-01-26T14:41:19.570Z,37.53
2023-01-26T14:43:49.582Z,42.03
2023-01-26T14:46:19.931Z,37.93
2023-01-26T14:48:51.939Z,38.87
2023-01-26T14:51:23.595Z,38.90
2023-01-26T14:53:53.987Z,39.90
2023-01-26T14:56:29.224Z,41.97
2023-01-26T14:58:57.465Z,36.10
2023-01-26T15:01:27.865Z,43.07
2023-01-26T15:04:02.507Z,38.57
2023-01-26T15:06:33.653Z,42.60
2023-01-26T15:09:05.061Z,44.67
2023-01-26T15:11:55.952Z,41.63
2023-01-26T15:14:34.506Z,37.30
2023-01-26T15:17:03.132Z,41.00
2023-01-26T15:19:39.333Z,43.80
2023-01-26T15:22:21.888Z,37.80
2023-01-26T15:25:02.436Z,38.80
2023-01-26T15:27:35.600Z,40.67
2023-01-26T15:30:06.564Z,41.97
2023-01-26T15:32:40.409Z,40.07
2023-01-26T15:35:20.370Z,43.97
2023-01-26T15:37:50.652Z,45.30
2023-01-26T15:40:19.270Z,43.87
2023-01-26T15:42:47.394Z,43.73
2023-01-26T15:45:25.430Z,49.30
2023-01-26T15:47:53.604Z,38.90
2023-01-26T15:50:27.740Z,42.63
2023-01-26T15:52:58.127Z,47.77
2023-01-26T15:55:30.530Z,45.83
2023-01-26T15:57:58.711Z,45.17
2023-01-26T16:00:27.423Z,46.37
2023-01-26T16:02:55.747Z,46.73
2023-01-26T16:05:25.403Z,47.87
2023-01-26T16:07:53.668Z,41.13
2023-01-26T16:10:23.236Z,53.25
2023-01-26T16:12:51.851Z,49.73
2023-01-26T16:15:26.861Z,52.17
2023-01-26T16:17:55.030Z,52.38
2023-01-26T16:20:23.339Z,49.40
2023-01-26T16:22:51.499Z,47.37
2023-01-26T16:25:26.436Z,45.83
2023-01-26T16:27:54.833Z,51.77
2023-01-26T16:30:23.262Z,46.73
2023-01-26T16:32:51.905Z,50.37
2023-01-26T16:35:22.181Z,52.13
2023-01-26T16:37:50.336Z,48.60
2023-01-26T16:40:20.028Z,54.57
2023-01-26T16:42:52.145Z,51.27
2023-01-26T16:45:22.540Z,51.77
2023-01-26T16:47:54.868Z,55.70
2023-01-26T16:50:23.701Z,56.93
2023-01-26T16:52:52.185Z,55.70
2023-01-26T16:55:20.719Z,55.57
2023-01-26T16:57:50.335Z,58.70
2023-01-26T17:00:21.308Z,56.17
2023-01-26T17:02:52.439Z,63.90
2023-01-26T17:05:22.664Z,62.00
2023-01-26T17:07:51.646Z,62.77
2023-01-26T17:10:22.454Z,69.15
2023-01-26T17:12:52.932Z,65.67
2023-01-26T17:15:21.301Z,66.40
2023-01-26T17:17:50.324Z,58.43
2023-01-26T17:20:20.215Z,51.93
2023-01-26T17:22:48.775Z,58.27
2023-01-26T17:25:17.812Z,63.53
2023-01-26T17:27:46.703Z,57.37
2023-01-26T17:30:17.536Z,67.50
2023-01-26T17:32:45.719Z,61.40
2023-01-26T17:35:14.202Z,62.90
2023-01-26T17:37:42.465Z,65.43
2023-01-26T17:40:12.100Z,64.30
2023-01-26T17:42:40.266Z,59.23
2023-01-26T17:45:10.018Z,59.40
2023-01-26T17:47:39.811Z,59.10
2023-01-26T17:50:09.000Z,58.90
2023-01-26T17:52:37.152Z,77.37
2023-01-26T17:55:07.358Z,63.03
2023-01-26T17:57:35.658Z,59.03
2023-01-26T18:00:04.721Z,62.90
2023-01-26T18:02:33.838Z,62.23
2023-01-26T18:05:03.393Z,57.40
2023-01-26T18:07:31.576Z,60.40
2023-01-26T18:09:59.856Z,71.70
2023-01-26T18:12:28.037Z,62.53
2023-01-26T18:14:56.152Z,63.53
2023-01-26T18:17:25.980Z,61.50
2023-01-26T18:19:54.233Z,62.07
2023-01-26T18:22:23.859Z,72.07
2023-01-26T18:24:52.781Z,66.20
2023-01-26T18:27:20.945Z,76.03
2023-01-26T18:29:49.152Z,71.60
2023-01-26T18:32:17.323Z,65.40
2023-01-26T18:34:45.462Z,63.33
2023-01-26T18:37:13.840Z,68.47
2023-01-26T18:39:43.456Z,67.47
2023-01-26T18:42:11.733Z,59.60
2023-01-26T18:44:39.883Z,60.37
2023-01-26T18:47:08.079Z,58.70
2023-01-26T18:49:36.244Z,61.67
2023-01-26T18:52:05.225Z,58.43
2023-01-26T18:54:34.189Z,66.23
2023-01-26T18:57:04.968Z,70.27
2023-01-26T18:59:33.274Z,60.03
2023-01-26T19:02:01.519Z,67.67
2023-01-26T19:04:29.843Z,69.80
2023-01-26T19:06:58.089Z,56.70
2023-01-26T19:09:33.146Z,69.00
2023-01-26T19:12:02.164Z,66.07
2023-01-26T19:14:33.008Z,64.87
2023-01-26T19:17:01.291Z,58.23
2023-01-26T19:19:31.807Z,66.20
2023-01-26T19:22:00.339Z,61.80
2023-01-26T19:24:28.667Z,51.23
2023-01-26T19:26:56.848Z,58.67
2023-01-26T19:29:25.082Z,61.60
2023-01-26T19:31:54.688Z,52.67
2023-01-26T19:34:23.233Z,60.77
2023-01-26T19:36:51.507Z,59.17
2023-01-26T19:39:19.712Z,59.10
2023-01-26T19:41:47.873Z,52.30
2023-01-26T19:44:16.001Z,62.30
2023-01-26T19:46:44.204Z,55.10
2023-01-26T19:49:15.069Z,54.73
2023-01-26T19:51:43.220Z,56.87
2023-01-26T19:54:11.494Z,54.77
2023-01-26T19:56:39.816Z,60.97
2023-01-26T19:59:10.269Z,61.73
2023-01-26T20:01:38.828Z,67.70
2023-01-26T20:04:09.202Z,60.03
2023-01-26T20:06:39.808Z,53.33
2023-01-26T20:09:09.180Z,55.23
2023-01-26T20:11:37.560Z,55.97
2023-01-26T20:14:08.529Z,60.13
2023-01-26T20:16:37.535Z,63.17
2023-01-26T20:19:06.159Z,61.07
2023-01-26T20:21:37.173Z,58.60
2023-01-26T20:24:07.922Z,58.80
2023-01-26T20:26:36.527Z,55.53
2023-01-26T20:29:05.770Z,61.63
2023-01-26T20:31:34.566Z,53.80
2023-01-26T20:34:02.981Z,59.40
2023-01-26T20:36:32.071Z,66.17
2023-01-26T20:39:00.984Z,66.70
2023-01-26T20:41:31.885Z,65.80
2023-01-26T20:44:02.222Z,58.37
2023-01-26T20:46:32.271Z,67.33
2023-01-26T20:49:01.312Z,60.13
2023-01-26T20:51:33.735Z,60.93
2023-01-26T20:54:02.469Z,58.77
2023-01-26T20:56:32.358Z,68.77
2023-01-26T20:59:00.727Z,65.27
2023-01-26T21:01:29.104Z,63.63
2023-01-26T21:03:57.385Z,62.33
2023-01-26T21:06:26.345Z,61.17
2023-01-26T21:08:56.229Z,60.10
2023-01-26T21:11:26.292Z,50.80
2023-01-26T21:13:56.636Z,60.07
2023-01-26T21:16:25.889Z,67.60
2023-01-26T21:18:54.197Z,63.67
2023-01-26T21:21:22.817Z,67.57
2023-01-26T21:23:51.795Z,62.37
2023-01-26T21:26:22.595Z,59.27
2023-01-26T21:28:52.380Z,57.77
2023-01-26T21:31:24.991Z,58.87
2023-01-26T21:33:53.943Z,61.87
2023-01-26T21:36:24.086Z,62.17
2023-01-26T21:38:53.856Z,58.83
2023-01-26T21:41:37.582Z,57.33
2023-01-26T21:44:07.961Z,54.33
2023-01-26T21:46:37.609Z,54.43
2023-01-26T21:49:06.229Z,61.90
2023-01-26T21:51:51.810Z,56.23
2023-01-26T21:54:20.173Z,56.37
2023-01-26T21:56:48.338Z,58.73
2023-01-26T21:59:17.420Z,64.53
2023-01-26T22:01:48.425Z,61.57
2023-01-26T22:04:19.468Z,71.70
2023-01-26T22:06:47.596Z,69.93
2023-01-26T22:09:17.379Z,63.30
2023-01-26T22:11:45.667Z,58.33
2023-01-26T22:14:17.163Z,60.63
2023-01-26T22:16:46.820Z,60.10
2023-01-26T22:19:15.213Z,62.93
2023-01-26T22:21:43.621Z,59.77
2023-01-26T22:24:13.512Z,56.50
2023-01-26T22:26:41.737Z,62.03
2023-01-26T22:29:11.033Z,60.90
2023-01-26T22:31:39.262Z,58.67
2023-01-26T22:34:08.828Z,59.40
2023-01-26T22:36:37.045Z,51.87
2023-01-26T22:39:05.532Z,61.27
2023-01-26T22:41:34.420Z,59.57
2023-01-26T22:44:02.833Z,56.60
2023-01-26T22:46:32.284Z,64.23
2023-01-26T22:49:01.108Z,59.33
2023-01-26T22:51:32.341Z,62.23
2023-01-26T22:54:01.084Z,67.47
2023-01-26T22:56:29.286Z,68.33
2023-01-26T22:59:00.300Z,75.33
2023-01-26T23:01:30.193Z,78.93
2023-01-26T23:03:58.705Z,78.27
2023-01-26T23:06:27.319Z,91.57
2023-01-26T23:08:58.227Z,72.30
2023-01-26T23:11:28.525Z,75.03
2023-01-26T23:13:57.913Z,64.53
2023-01-26T23:16:26.874Z,66.53
2023-01-26T23:18:56.481Z,62.07
2023-01-26T23:21:25.195Z,65.17
2023-01-26T23:23:53.413Z,64.13
2023-01-26T23:26:23.729Z,60.67
2023-01-26T23:28:51.927Z,67.67
2023-01-26T23:31:20.678Z,59.37
2023-01-26T23:33:48.896Z,66.50
2023-01-26T23:36:17.123Z,63.43
2023-01-26T23:38:45.716Z,62.83
2023-01-26T23:41:16.927Z,58.87
2023-01-26T23:43:46.817Z,62.50
2023-01-26T23:46:14.985Z,70.43
2023-01-26T23:48:43.369Z,59.07
2023-01-26T23:51:12.806Z,59.97
2023-01-26T23:53:40.961Z,60.37
2023-01-26T23:56:11.643Z,61.20
2023-01-26T23:58:39.773Z,61.50
